Time;durP1;ratioP1;P1;durP2;ratioP2;P2;SDS_P1;SDS_P2;PMS_P1;PMS_P2;Temp;Humidity;BMP_temperature;BMP_pressure;BME280_temperature;BME280_humidity;BME280_pressure;Samples;Min_cycle;Max_cycle;Signal;HPM_P1;HPM_P2
2022/03/22 00:01:21;;;;;;;23.63;13.20;;;9.00;87.00;;;;;;5030108;28;20038;-57
2022/03/22 00:03:47;;;;;;;24.60;12.40;;;8.90;87.80;;;;;;5028878;28;20091;-59
2022/03/22 00:06:13;;;;;;;23.85;12.73;;;8.80;88.00;;;;;;5030420;28;20048;-58
2022/03/22 00:08:41;;;;;;;27.63;14.70;;;8.80;88.20;;;;;;5028897;28;20026;-51
2022/03/22 00:11:06;;;;;;;30.90;13.68;;;8.70;88.70;;;;;;5030691;28;20029;-54
2022/03/22 00:13:33;;;;;;;23.25;12.95;;;8.70;88.70;;;;;;5029648;28;20384;-57
2022/03/22 00:15:58;;;;;;;26.48;12.57;;;8.80;88.00;;;;;;5030139;28;20021;-57
2022/03/22 00:18:24;;;;;;;34.08;13.77;;;8.80;87.60;;;;;;5030619;28;20062;-57
2022/03/22 00:20:49;;;;;;;25.38;13.05;;;8.80;87.10;;;;;;4993776;28;20030;-58
2022/03/22 00:23:18;;;;;;;23.42;12.20;;;8.90;86.80;;;;;;5027915;28;20029;-55
2022/03/22 00:25:44;;;;;;;30.05;15.00;;;9.00;86.80;;;;;;5033102;28;20040;-54
2022/03/22 00:28:09;;;;;;;30.90;14.25;;;9.00;86.10;;;;;;5029206;28;20105;-54
2022/03/22 00:30:35;;;;;;;30.63;15.85;;;9.00;87.00;;;;;;5019533;28;20037;-57
2022/03/22 00:33:04;;;;;;;26.08;13.82;;;8.90;86.90;;;;;;5033952;28;20033;-56
2022/03/22 00:35:36;;;;;;;36.25;17.02;;;8.90;86.60;;;;;;5033316;28;20491;-58
2022/03/22 00:38:03;;;;;;;28.63;15.68;;;8.80;87.00;;;;;;5031851;28;20110;-57
2022/03/22 00:40:29;;;;;;;27.48;14.43;;;8.80;86.00;;;;;;5016583;28;20115;-57
2022/03/22 00:42:55;;;;;;;33.85;18.42;;;8.70;85.90;;;;;;5028651;28;20038;-57
2022/03/22 00:45:23;;;;;;;31.13;14.73;;;8.80;86.10;;;;;;5015174;28;20057;-53
2022/03/22 00:47:52;;;;;;;32.42;15.15;;;8.70;86.40;;;;;;5033094;28;20473;-55
2022/03/22 00:50:20;;;;;;;33.28;15.55;;;8.80;85.70;;;;;;5033530;28;20087;-57
2022/03/22 00:52:46;;;;;;;33.22;16.08;;;8.80;85.80;;;;;;5034099;28;20033;-57
2022/03/22 00:55:13;;;;;;;33.60;15.55;;;8.90;85.10;;;;;;5032173;28;20026;-55
2022/03/22 00:57:42;;;;;;;36.50;18.17;;;8.90;85.40;;;;;;5032756;28;20390;-59
2022/03/22 01:00:13;;;;;;;22.23;12.75;;;8.70;86.20;;;;;;5031950;28;20029;-58
2022/03/22 01:02:41;;;;;;;28.08;14.85;;;8.70;86.60;;;;;;5029477;28;20064;-57
2022/03/22 01:05:13;;;;;;;29.23;14.77;;;8.60;87.00;;;;;;5030752;28;20037;-57
2022/03/22 01:07:41;;;;;;;34.88;15.80;;;8.60;87.40;;;;;;5028304;28;20059;-57
2022/03/22 01:10:09;;;;;;;27.08;13.55;;;8.50;88.20;;;;;;5020732;28;20071;-58
2022/03/22 01:12:37;;;;;;;25.38;13.52;;;8.50;88.70;;;;;;5029566;28;20033;-56
2022/03/22 01:15:10;;;;;;;28.88;14.43;;;8.40;89.20;;;;;;5028003;28;20032;-59
2022/03/22 01:17:36;;;;;;;30.45;13.52;;;8.30;89.90;;;;;;5030218;28;20483;-56
2022/03/22 01:20:05;;;;;;;30.88;14.57;;;8.20;88.50;;;;;;5030499;28;20124;-58
2022/03/22 01:22:31;;;;;;;24.85;13.65;;;8.20;89.10;;;;;;5031123;28;20032;-58
2022/03/22 01:24:57;;;;;;;24.50;14.07;;;8.00;89.60;;;;;;5030784;28;20136;-56
2022/03/22 01:27:22;;;;;;;28.35;13.77;;;8.00;90.00;;;;;;5031668;28;20102;-56
2022/03/22 01:29:49;;;;;;;25.73;13.50;;;7.90;90.40;;;;;;5028856;28;20030;-53
2022/03/22 01:32:15;;;;;;;29.20;13.73;;;7.90;89.90;;;;;;5030768;28;20025;-56
2022/03/22 01:34:42;;;;;;;24.00;12.73;;;7.90;90.00;;;;;;5026107;28;20422;-55
2022/03/22 01:37:09;;;;;;;24.50;13.15;;;7.90;90.20;;;;;;5031485;28;20042;-56
2022/03/22 01:39:35;;;;;;;25.48;12.23;;;7.90;90.50;;;;;;5013431;28;20108;-55
2022/03/22 01:42:00;;;;;;;25.13;12.88;;;7.90;90.20;;;;;;5031025;28;20037;-57
2022/03/22 01:44:26;;;;;;;28.63;12.68;;;7.90;90.00;;;;;;5030306;28;20076;-58
2022/03/22 01:46:56;;;;;;;26.25;13.20;;;7.90;90.50;;;;;;5030257;28;20044;-56
2022/03/22 01:49:22;;;;;;;22.90;12.05;;;7.90;90.60;;;;;;5029530;28;20095;-56
2022/03/22 01:51:49;;;;;;;23.77;11.90;;;7.90;90.40;;;;;;5031383;28;20037;-56
2022/03/22 01:54:16;;;;;;;24.60;12.52;;;7.80;90.20;;;;;;5024846;28;20446;-55
2022/03/22 01:56:41;;;;;;;22.58;13.05;;;7.80;90.10;;;;;;5034545;28;20090;-48
2022/03/22 01:59:07;;;;;;;20.58;12.23;;;7.90;90.10;;;;;;5029151;28;20046;-57
2022/03/22 02:07:05;;;;;;;28.00;11.60;;;7.80;89.80;;;;;;5028299;28;20457;-58
2022/03/22 02:09:31;;;;;;;31.38;14.27;;;7.80;90.00;;;;;;5031325;28;20390;-55
2022/03/22 02:11:56;;;;;;;34.65;15.00;;;7.80;89.70;;;;;;5010738;28;20037;-57
2022/03/22 02:14:22;;;;;;;21.70;12.57;;;7.80;90.00;;;;;;4994323;28;20029;-54
2022/03/22 02:16:47;;;;;;;23.95;11.50;;;7.80;88.50;;;;;;4981986;28;20037;-56
2022/03/22 02:19:16;;;;;;;22.33;12.65;;;7.80;88.70;;;;;;5027620;28;20033;-57
2022/03/22 02:21:43;;;;;;;20.38;11.38;;;7.80;89.00;;;;;;5027544;28;20041;-57
2022/03/22 02:24:09;;;;;;;21.85;12.23;;;7.70;89.70;;;;;;5026181;28;20025;-57
2022/03/22 02:26:36;;;;;;;23.80;11.90;;;7.70;89.30;;;;;;5022909;28;20037;-57
2022/03/22 02:29:03;;;;;;;21.83;11.20;;;7.70;88.40;;;;;;5024835;28;20099;-57
2022/03/22 02:31:30;;;;;;;22.90;13.02;;;7.70;88.90;;;;;;5031233;28;20026;-56
2022/03/22 02:33:56;;;;;;;26.50;13.00;;;7.70;89.00;;;;;;5019433;28;20026;-55
2022/03/22 02:36:22;;;;;;;23.50;13.00;;;7.70;89.50;;;;;;5031620;28;20087;-57
2022/03/22 02:38:48;;;;;;;21.63;12.25;;;7.60;90.00;;;;;;5029297;28;20033;-55
2022/03/22 02:41:17;;;;;;;21.38;12.35;;;7.60;90.20;;;;;;5010542;28;20136;-54
2022/03/22 02:43:44;;;;;;;26.73;12.48;;;7.50;90.30;;;;;;5031014;28;20091;-56
2022/03/22 02:46:10;;;;;;;22.30;12.40;;;7.40;90.40;;;;;;5029034;28;20033;-56
2022/03/22 02:48:35;;;;;;;21.55;12.25;;;7.30;90.50;;;;;;5025648;28;20431;-57
2022/03/22 02:51:01;;;;;;;22.58;11.77;;;7.30;90.80;;;;;;5028766;28;20064;-58
2022/03/22 02:53:26;;;;;;;19.80;12.07;;;7.30;90.30;;;;;;5030262;28;20071;-57
2022/03/22 02:55:52;;;;;;;24.70;12.02;;;7.20;90.30;;;;;;5030826;28;20491;-56
2022/03/22 02:58:18;;;;;;;20.85;11.35;;;7.20;90.30;;;;;;5025393;28;20030;-55
2022/03/22 03:00:44;;;;;;;23.90;12.40;;;7.30;90.30;;;;;;5030589;28;20179;-54
2022/03/22 03:03:09;;;;;;;22.63;13.27;;;7.30;90.10;;;;;;5028739;28;20026;-56
2022/03/22 03:05:35;;;;;;;19.65;10.77;;;7.30;90.00;;;;;;5028645;28;20040;-58
2022/03/22 03:08:01;;;;;;;29.20;12.10;;;7.30;89.90;;;;;;5026461;28;20030;-57
2022/03/22 03:10:26;;;;;;;16.85;10.38;;;7.30;90.00;;;;;;5027066;28;20029;-55
2022/03/22 03:13:00;;;;;;;23.50;12.02;;;7.20;89.80;;;;;;5030795;28;20029;-55
2022/03/22 03:15:25;;;;;;;21.27;12.03;;;7.20;90.10;;;;;;5031246;28;20033;-54
2022/03/22 03:17:51;;;;;;;27.98;12.70;;;7.00;90.30;;;;;;5023062;28;20285;-55
2022/03/22 03:20:16;;;;;;;25.20;12.73;;;7.00;90.40;;;;;;5030727;28;20037;-56
2022/03/22 03:22:42;;;;;;;22.38;12.10;;;6.90;90.50;;;;;;5028557;28;20041;-57
2022/03/22 03:25:08;;;;;;;22.02;11.68;;;6.80;90.70;;;;;;5022129;28;20117;-55
2022/03/22 03:27:34;;;;;;;22.38;12.10;;;6.80;90.60;;;;;;5030469;28;20104;-57
2022/03/22 03:30:00;;;;;;;25.15;12.90;;;6.70;90.60;;;;;;5030155;28;20033;-55
2022/03/22 03:32:25;;;;;;;24.35;12.15;;;6.70;90.70;;;;;;5029660;28;20045;-56
2022/03/22 03:34:51;;;;;;;22.15;11.70;;;6.70;90.70;;;;;;5019763;28;20025;-54
2022/03/22 03:37:17;;;;;;;22.45;12.40;;;6.80;90.80;;;;;;5020139;28;20033;-51
2022/03/22 03:39:43;;;;;;;28.50;12.80;;;6.70;91.30;;;;;;5008591;28;20036;-50
2022/03/22 03:42:09;;;;;;;26.15;12.82;;;6.70;91.30;;;;;;4996994;28;20055;-54
2022/03/22 03:47:22;;;;;;;27.83;13.50;;;6.50;92.40;;;;;;5022165;28;20032;-57
2022/03/22 03:49:59;;;;;;;23.73;13.52;;;6.40;93.10;;;;;;5025984;28;20033;-54
2022/03/22 03:52:26;;;;;;;24.25;13.18;;;6.30;93.40;;;;;;5028010;28;20025;-57
2022/03/22 03:54:54;;;;;;;28.95;13.60;;;6.20;93.70;;;;;;5028708;28;20052;-55
2022/03/22 03:57:21;;;;;;;23.30;13.63;;;6.10;93.80;;;;;;5021424;28;20529;-56
2022/03/22 03:59:47;;;;;;;25.38;12.98;;;6.10;93.80;;;;;;5028812;28;20509;-52
2022/03/22 04:02:13;;;;;;;24.55;13.80;;;6.10;94.00;;;;;;5030174;28;20100;-56
2022/03/22 04:04:40;;;;;;;27.98;13.90;;;6.10;94.00;;;;;;5027602;28;20042;-55
2022/03/22 04:07:07;;;;;;;29.30;12.75;;;6.10;94.00;;;;;;5028999;28;20033;-55
2022/03/22 04:09:37;;;;;;;22.55;12.18;;;6.00;94.20;;;;;;5025515;28;20028;-56
2022/03/22 04:12:04;;;;;;;23.77;13.02;;;6.00;94.30;;;;;;5029243;28;20131;-56
2022/03/22 04:14:30;;;;;;;23.70;12.98;;;5.90;94.40;;;;;;5026998;28;20037;-55
2022/03/22 04:16:58;;;;;;;29.85;14.52;;;5.80;94.50;;;;;;5027813;28;20096;-55
2022/03/22 04:19:26;;;;;;;24.67;11.90;;;5.80;94.50;;;;;;5029938;28;20561;-56
2022/03/22 04:21:52;;;;;;;25.67;12.73;;;5.80;94.60;;;;;;5029719;28;20033;-54
2022/03/22 04:24:18;;;;;;;25.20;12.13;;;5.80;94.50;;;;;;5026713;28;20037;-57
2022/03/22 04:26:45;;;;;;;21.33;12.35;;;5.70;94.40;;;;;;5026893;28;20115;-53
2022/03/22 04:34:43;;;;;;;;;;;5.70;94.10;;;;;;5020877;28;20056;-55
2022/03/22 04:37:14;;;;;;;20.90;11.18;;;5.70;93.90;;;;;;5028751;28;19909;-56
2022/03/22 04:39:42;;;;;;;20.90;11.82;;;5.70;93.90;;;;;;5028765;28;20391;-50
2022/03/22 04:42:08;;;;;;;25.45;12.98;;;5.70;93.80;;;;;;5009747;28;20136;-55
2022/03/22 04:44:34;;;;;;;20.25;12.05;;;5.70;93.80;;;;;;5024892;28;20025;-54
2022/03/22 04:47:00;;;;;;;22.60;11.93;;;5.70;93.70;;;;;;5028044;28;20529;-55
2022/03/22 04:49:27;;;;;;;22.77;12.63;;;5.70;93.30;;;;;;5026760;28;20044;-54
2022/03/22 04:57:21;;;;;;;23.90;12.40;;;5.80;93.40;;;;;;5030133;28;20398;-55
2022/03/22 04:59:48;;;;;;;24.75;12.73;;;5.70;93.70;;;;;;5028859;28;20112;-56
2022/03/22 05:02:13;;;;;;;22.83;12.20;;;5.70;94.00;;;;;;5020758;28;20021;-57
2022/03/22 05:04:39;;;;;;;24.00;13.43;;;5.60;94.40;;;;;;5028241;28;20037;-53
2022/03/22 05:07:04;;;;;;;24.73;12.35;;;5.50;94.30;;;;;;5027773;28;20026;-53
2022/03/22 05:09:30;;;;;;;24.13;12.40;;;5.50;94.40;;;;;;5004321;28;20453;-56
2022/03/22 05:11:57;;;;;;;21.65;12.77;;;5.40;94.20;;;;;;5031222;28;20025;-58
2022/03/22 05:14:22;;;;;;;29.02;12.70;;;5.40;94.30;;;;;;5027727;28;20079;-55
2022/03/22 05:16:48;;;;;;;21.58;11.60;;;5.40;94.30;;;;;;5029610;28;20033;-55
2022/03/22 05:19:14;;;;;;;23.27;12.73;;;5.30;94.20;;;;;;5032833;28;20033;-57
2022/03/22 05:21:40;;;;;;;20.42;11.38;;;5.40;94.20;;;;;;5033308;28;20040;-58
2022/03/22 05:24:06;;;;;;;21.67;11.75;;;5.40;94.00;;;;;;5032359;28;20040;-57
2022/03/22 05:26:32;;;;;;;27.15;12.77;;;5.40;93.70;;;;;;5031315;28;20037;-56
2022/03/22 05:28:58;;;;;;;23.45;12.23;;;5.40;93.20;;;;;;5032081;28;20059;-56
2022/03/22 05:31:24;;;;;;;24.50;12.10;;;5.50;93.20;;;;;;5030820;28;20144;-58
2022/03/22 05:33:49;;;;;;;22.73;11.65;;;5.60;93.00;;;;;;5030820;28;20037;-51
2022/03/22 05:36:16;;;;;;;24.95;12.13;;;5.60;92.80;;;;;;5031414;28;20029;-57
2022/03/22 05:38:41;;;;;;;20.13;10.95;;;5.70;92.60;;;;;;5027942;28;20057;-55
2022/03/22 05:41:08;;;;;;;22.73;11.55;;;5.80;92.60;;;;;;5031137;28;20486;-57
2022/03/22 05:43:35;;;;;;;22.17;11.48;;;5.80;92.40;;;;;;5015309;28;20849;-58
2022/03/22 05:46:02;;;;;;;20.35;10.30;;;5.80;92.40;;;;;;5030222;28;20026;-58
2022/03/22 05:48:29;;;;;;;22.20;10.45;;;5.90;91.90;;;;;;5030742;28;20116;-58
2022/03/22 05:50:55;;;;;;;23.23;10.30;;;5.90;91.80;;;;;;5031916;28;20103;-58
2022/03/22 05:53:20;;;;;;;17.02;10.10;;;6.00;91.60;;;;;;5030964;28;20038;-53
2022/03/22 05:55:46;;;;;;;19.02;10.40;;;6.10;91.60;;;;;;5027820;28;20034;-54
2022/03/22 05:58:12;;;;;;;25.42;11.52;;;6.20;90.90;;;;;;5030752;28;20065;-57
2022/03/22 06:00:38;;;;;;;23.30;10.38;;;6.30;90.30;;;;;;5031193;28;20532;-59
2022/03/22 06:03:03;;;;;;;18.70;10.25;;;6.40;90.10;;;;;;5027296;28;20033;-56
2022/03/22 06:05:29;;;;;;;21.23;10.40;;;6.60;89.90;;;;;;5031357;28;20045;-55
2022/03/22 06:07:55;;;;;;;24.52;11.63;;;6.70;89.40;;;;;;5028289;28;20136;-52
2022/03/22 06:10:21;;;;;;;19.02;10.35;;;6.90;88.60;;;;;;5031550;28;20429;-54
2022/03/22 06:12:52;;;;;;;19.48;11.02;;;7.10;87.60;;;;;;5029937;28;20092;-58
2022/03/22 06:15:20;;;;;;;21.85;10.32;;;7.10;87.50;;;;;;5030876;28;20037;-56
2022/03/22 06:17:57;;;;;;;19.35;10.10;;;7.30;86.60;;;;;;5030451;28;20048;-57
2022/03/22 06:20:25;;;;;;;17.65;10.90;;;7.30;86.30;;;;;;5030189;28;20025;-58
2022/03/22 06:22:52;;;;;;;16.25;9.98;;;7.40;86.70;;;;;;5026704;28;20053;-59
2022/03/22 06:25:19;;;;;;;19.35;9.95;;;7.40;87.10;;;;;;5030686;28;20041;-57
2022/03/22 06:27:47;;;;;;;21.98;9.60;;;7.60;85.10;;;;;;5030678;28;20034;-52
2022/03/22 06:30:15;;;;;;;19.80;9.68;;;8.00;82.40;;;;;;5030515;28;20030;-57
2022/03/22 06:32:55;;;;;;;18.00;9.85;;;8.40;81.40;;;;;;5029098;28;20099;-57
2022/03/22 06:35:23;;;;;;;17.25;9.07;;;8.80;80.90;;;;;;5029421;28;20566;-56
2022/03/22 06:37:49;;;;;;;19.48;10.38;;;9.10;80.10;;;;;;5029941;28;20136;-57
2022/03/22 06:40:17;;;;;;;17.33;9.75;;;9.40;78.90;;;;;;5030753;28;20518;-58
2022/03/22 06:42:44;;;;;;;18.75;10.77;;;9.70;77.30;;;;;;5003863;28;20041;-55
2022/03/22 06:45:10;;;;;;;22.42;9.95;;;10.00;77.30;;;;;;5030820;28;20030;-56
2022/03/22 06:47:37;;;;;;;18.13;10.48;;;10.20;76.40;;;;;;5031753;28;20033;-58
2022/03/22 06:50:03;;;;;;;17.30;10.43;;;10.30;76.50;;;;;;5029860;28;20018;-58
2022/03/22 06:52:29;;;;;;;22.40;11.52;;;10.50;75.40;;;;;;5029877;28;20026;-57
2022/03/22 06:54:55;;;;;;;16.13;9.68;;;11.00;74.50;;;;;;5030509;28;20028;-53
2022/03/22 06:57:21;;;;;;;17.55;10.80;;;11.70;74.30;;;;;;5030440;28;20085;-59
2022/03/22 06:59:46;;;;;;;27.13;11.65;;;12.50;73.70;;;;;;5028131;28;20048;-56
2022/03/22 07:02:12;;;;;;;16.48;11.05;;;12.90;72.20;;;;;;5029648;28;20044;-58
2022/03/22 07:04:37;;;;;;;18.77;12.23;;;13.40;71.90;;;;;;5029606;28;20037;-56
2022/03/22 07:07:03;;;;;;;23.50;12.48;;;14.10;70.90;;;;;;5030215;28;20403;-60
2022/03/22 07:09:29;;;;;;;20.13;11.88;;;14.40;70.60;;;;;;5030646;28;20080;-57
2022/03/22 07:11:56;;;;;;;19.35;12.35;;;15.20;67.40;;;;;;5031454;28;20095;-59
2022/03/22 07:14:28;;;;;;;15.95;11.10;;;15.70;66.70;;;;;;5030431;28;20495;-58
2022/03/22 07:16:54;;;;;;;18.17;10.40;;;15.90;64.80;;;;;;5028394;28;20033;-59
2022/03/22 07:19:22;;;;;;;19.30;11.30;;;16.10;65.30;;;;;;5030434;28;20654;-57
2022/03/22 07:21:49;;;;;;;22.38;11.52;;;16.30;64.30;;;;;;5030008;28;20099;-58
2022/03/22 07:24:17;;;;;;;18.08;10.93;;;16.50;64.00;;;;;;5028636;28;20045;-57
2022/03/22 07:26:42;;;;;;;19.60;10.65;;;16.20;61.90;;;;;;5030123;28;20509;-56
2022/03/22 07:29:08;;;;;;;20.50;12.10;;;15.70;62.60;;;;;;5030112;28;20022;-57
2022/03/22 07:31:38;;;;;;;20.38;11.45;;;14.50;64.80;;;;;;5030055;28;20483;-55
2022/03/22 07:34:09;;;;;;;15.15;10.60;;;13.70;67.20;;;;;;5027266;28;20029;-58
2022/03/22 07:36:39;;;;;;;19.85;11.95;;;13.20;68.40;;;;;;5030300;28;20029;-56
2022/03/22 07:39:08;;;;;;;21.75;12.50;;;12.80;69.60;;;;;;5030194;28;20670;-58
2022/03/22 07:41:34;;;;;;;17.15;11.00;;;12.60;70.50;;;;;;5021993;28;20026;-56
2022/03/22 07:44:01;;;;;;;16.95;10.82;;;12.40;70.30;;;;;;5007863;28;20509;-56
2022/03/22 07:46:27;;;;;;;16.05;10.60;;;12.50;70.30;;;;;;5029870;28;20120;-56
2022/03/22 07:48:53;;;;;;;17.17;11.05;;;12.70;71.70;;;;;;5029017;28;20061;-58
2022/03/22 07:54:05;;;;;;;17.33;11.55;;;13.60;69.90;;;;;;5026573;28;20040;-57
2022/03/22 07:56:30;;;;;;;15.07;10.43;;;14.50;67.80;;;;;;5012349;28;20129;-57
2022/03/22 07:58:57;;;;;;;18.60;12.20;;;15.30;67.00;;;;;;5029274;28;20104;-57
2022/03/22 08:01:23;;;;;;;15.80;10.75;;;15.60;67.20;;;;;;5029414;28;20029;-58
2022/03/22 08:03:48;;;;;;;19.73;11.63;;;15.90;64.40;;;;;;5029754;28;20086;-58
2022/03/22 08:06:14;;;;;;;17.70;10.90;;;16.80;63.30;;;;;;5029980;28;20037;-59
2022/03/22 08:08:43;;;;;;;14.57;10.27;;;17.40;61.60;;;;;;5025827;28;20208;-56
2022/03/22 08:11:09;;;;;;;16.48;10.40;;;18.00;61.10;;;;;;5025542;28;20075;-59
2022/03/22 08:13:36;;;;;;;16.27;11.00;;;18.70;59.40;;;;;;5026069;28;20445;-56
2022/03/22 08:16:02;;;;;;;21.42;10.98;;;18.30;60.10;;;;;;5029751;28;20022;-57
2022/03/22 08:18:28;;;;;;;15.80;10.80;;;18.60;59.70;;;;;;5029658;28;20394;-58
2022/03/22 08:20:53;;;;;;;14.00;10.70;;;18.70;61.20;;;;;;5029509;28;20021;-58
2022/03/22 08:23:19;;;;;;;14.95;10.48;;;18.90;60.60;;;;;;5027770;28;20033;-57
2022/03/22 08:25:46;;;;;;;17.08;10.35;;;19.20;59.90;;;;;;5029503;28;20107;-56
2022/03/22 08:28:12;;;;;;;19.77;11.35;;;19.20;57.50;;;;;;5027156;28;20037;-57
2022/03/22 08:30:40;;;;;;;18.30;10.23;;;19.90;57.50;;;;;;5028003;28;20112;-59
2022/03/22 08:33:07;;;;;;;15.48;11.10;;;20.00;57.20;;;;;;5028029;28;20668;-57
2022/03/22 08:35:33;;;;;;;13.55;9.77;;;20.10;57.20;;;;;;5023893;28;20466;-59
2022/03/22 08:37:59;;;;;;;14.55;9.88;;;20.60;57.20;;;;;;5028797;28;20052;-59
2022/03/22 08:40:25;;;;;;;14.73;9.43;;;20.70;55.70;;;;;;5028280;28;20029;-56
2022/03/22 08:42:53;;;;;;;19.17;9.68;;;20.60;55.00;;;;;;5019306;28;20037;-59
2022/03/22 08:45:22;;;;;;;14.55;10.30;;;19.80;52.90;;;;;;5010196;28;20128;-59
2022/03/22 08:47:49;;;;;;;13.73;9.73;;;19.70;53.80;;;;;;5020825;28;20473;-57
2022/03/22 08:50:19;;;;;;;14.50;9.65;;;19.90;53.60;;;;;;5032353;28;20028;-59
2022/03/22 08:52:47;;;;;;;12.73;10.38;;;19.60;54.90;;;;;;5032562;28;20068;-60
2022/03/22 08:55:14;;;;;;;15.30;9.98;;;19.80;54.60;;;;;;5033606;28;20075;-57
2022/03/22 08:57:41;;;;;;;14.35;10.05;;;19.80;55.50;;;;;;5029281;28;20025;-60
2022/03/22 09:00:09;;;;;;;22.30;10.50;;;20.10;53.30;;;;;;5015529;28;20076;-59
2022/03/22 09:02:36;;;;;;;14.13;10.15;;;19.40;54.20;;;;;;5032436;28;20034;-59
2022/03/22 09:07:47;;;;;;;23.30;10.23;;;19.50;52.70;;;;;;5027366;28;20061;-57
2022/03/22 09:10:14;;;;;;;11.98;9.40;;;20.00;52.20;;;;;;5022371;28;20395;-60
2022/03/22 09:12:41;;;;;;;18.08;10.32;;;20.10;52.10;;;;;;5030400;28;20022;-57
2022/03/22 09:15:07;;;;;;;16.63;9.48;;;20.60;51.70;;;;;;5025541;28;20018;-58
2022/03/22 09:17:32;;;;;;;13.63;9.45;;;20.20;50.00;;;;;;5033415;28;20074;-60
2022/03/22 09:19:58;;;;;;;17.08;9.82;;;19.80;51.40;;;;;;5033226;28;20115;-57
2022/03/22 09:22:23;;;;;;;15.60;10.18;;;19.50;51.70;;;;;;5032745;28;20025;-61
2022/03/22 09:24:49;;;;;;;15.68;10.13;;;19.40;51.70;;;;;;5022798;28;20041;-58
2022/03/22 09:27:15;;;;;;;16.25;9.70;;;19.30;51.90;;;;;;5030893;28;20716;-60
2022/03/22 09:29:40;;;;;;;14.10;9.75;;;19.40;50.50;;;;;;5015357;28;22110;-59
2022/03/22 09:32:06;;;;;;;12.70;9.38;;;19.60;51.10;;;;;;5024369;28;20017;-60
2022/03/22 09:34:32;;;;;;;10.75;8.70;;;20.00;51.70;;;;;;5030734;28;20026;-58
2022/03/22 09:36:59;;;;;;;11.85;8.77;;;20.10;51.00;;;;;;5028285;28;20033;-60
2022/03/22 09:39:25;;;;;;;14.10;10.20;;;20.80;50.60;;;;;;5030102;28;20102;-59
2022/03/22 09:41:51;;;;;;;13.63;9.27;;;21.50;48.90;;;;;;5030936;28;20416;-60
2022/03/22 09:44:18;;;;;;;12.90;8.48;;;21.60;47.60;;;;;;5020207;28;20022;-60
2022/03/22 09:46:50;;;;;;;14.10;9.43;;;21.50;47.50;;;;;;5032239;28;20083;-59
2022/03/22 09:49:18;;;;;;;10.85;8.95;;;21.30;45.80;;;;;;5032021;28;20028;-59
2022/03/22 09:51:44;;;;;;;12.25;8.38;;;21.10;45.90;;;;;;5030593;28;20026;-55
2022/03/22 09:54:12;;;;;;;10.20;8.43;;;20.90;46.70;;;;;;5010701;28;20084;-57
2022/03/22 09:56:42;;;;;;;16.65;9.23;;;21.00;46.90;;;;;;5028490;28;20030;-58
2022/03/22 09:59:08;;;;;;;14.85;9.27;;;20.80;44.50;;;;;;5018452;28;20021;-57
2022/03/22 10:01:34;;;;;;;12.63;8.10;;;20.90;46.90;;;;;;5030063;28;20060;-59
2022/03/22 10:04:09;;;;;;;17.30;8.05;;;20.80;45.90;;;;;;5029240;28;20448;-59
2022/03/22 10:06:35;;;;;;;13.75;8.35;;;20.80;46.80;;;;;;5031449;28;20383;-60
2022/03/22 10:09:08;;;;;;;13.30;8.07;;;21.10;43.90;;;;;;5028781;28;20021;-58
2022/03/22 10:11:41;;;;;;;8.95;7.68;;;21.40;44.50;;;;;;5031999;28;20101;-58
2022/03/22 10:14:09;;;;;;;10.38;7.25;;;21.60;43.50;;;;;;5028005;28;20395;-59
2022/03/22 10:16:52;;;;;;;13.52;8.60;;;21.30;41.90;;;;;;5030091;28;20029;-59
2022/03/22 10:19:22;;;;;;;14.73;8.55;;;21.20;42.30;;;;;;5027993;28;20040;-60
2022/03/22 10:21:48;;;;;;;13.57;8.02;;;20.80;41.30;;;;;;5032306;28;20569;-60
2022/03/22 10:24:17;;;;;;;13.02;8.10;;;20.70;43.00;;;;;;5031352;28;20032;-58
2022/03/22 10:26:46;;;;;;;14.18;7.78;;;20.30;44.40;;;;;;5026779;28;20057;-57
2022/03/22 10:29:13;;;;;;;12.93;7.28;;;20.00;43.70;;;;;;5025061;28;20022;-57
2022/03/22 10:31:40;;;;;;;17.23;7.70;;;19.70;43.90;;;;;;5029890;28;20520;-59
2022/03/22 10:34:06;;;;;;;11.90;8.48;;;19.50;44.80;;;;;;5029925;28;20513;-57
2022/03/22 10:36:36;;;;;;;12.77;8.48;;;19.40;46.00;;;;;;5027837;28;20402;-58
2022/03/22 10:39:05;;;;;;;17.45;9.15;;;19.20;44.40;;;;;;5015704;28;20030;-56
2022/03/22 10:41:32;;;;;;;14.00;8.57;;;18.80;44.90;;;;;;5029123;28;20513;-57
2022/03/22 10:44:15;;;;;;;13.25;9.15;;;18.40;45.40;;;;;;5029080;28;20037;-52
2022/03/22 10:46:42;;;;;;;10.93;7.85;;;18.30;47.00;;;;;;5015944;28;20034;-57
2022/03/22 10:49:17;;;;;;;14.05;9.25;;;18.30;45.20;;;;;;5017417;28;20554;-56
2022/03/22 10:51:49;;;;;;;15.18;9.75;;;18.20;46.40;;;;;;5031963;28;20079;-57
2022/03/22 10:54:18;;;;;;;18.65;9.07;;;18.10;46.90;;;;;;5029442;28;20490;-57
2022/03/22 10:56:46;;;;;;;16.95;8.63;;;18.10;45.50;;;;;;5030981;28;20486;-56
2022/03/22 10:59:14;;;;;;;15.88;8.38;;;18.00;46.30;;;;;;5022972;28;20021;-58
2022/03/22 11:01:42;;;;;;;14.35;8.88;;;18.00;45.40;;;;;;5029043;28;20017;-57
2022/03/22 11:04:09;;;;;;;15.98;9.38;;;18.00;45.90;;;;;;5025685;28;20052;-57
2022/03/22 11:06:37;;;;;;;11.93;8.27;;;18.10;47.40;;;;;;5025756;28;20022;-57
2022/03/22 11:09:03;;;;;;;11.88;8.52;;;18.20;47.90;;;;;;5018299;28;20018;-58
2022/03/22 11:11:31;;;;;;;12.40;9.23;;;18.30;46.90;;;;;;5023958;28;20018;-60
2022/03/22 11:13:57;;;;;;;17.73;8.35;;;18.20;46.70;;;;;;5027760;28;20110;-58
2022/03/22 11:16:26;;;;;;;16.67;8.25;;;18.10;45.50;;;;;;5030392;28;20021;-59
2022/03/22 11:18:52;;;;;;;15.65;9.02;;;18.10;47.90;;;;;;5025299;28;20025;-60
2022/03/22 11:21:19;;;;;;;13.82;9.10;;;18.00;47.80;;;;;;5021308;28;20387;-60
2022/03/22 11:23:47;;;;;;;14.55;8.95;;;17.80;46.00;;;;;;5019812;28;20025;-58
2022/03/22 11:26:17;;;;;;;12.90;8.57;;;17.90;47.70;;;;;;5011933;28;20024;-56
2022/03/22 11:28:44;;;;;;;13.13;8.52;;;18.00;48.30;;;;;;5026529;28;20045;-59
2022/03/22 11:31:12;;;;;;;11.18;7.35;;;18.10;47.30;;;;;;5028584;28;20119;-56
2022/03/22 11:36:27;;;;;;;15.20;7.75;;;18.00;44.70;;;;;;5026707;28;20139;-52
2022/03/22 11:38:58;;;;;;;11.88;7.90;;;17.80;45.40;;;;;;5026664;28;21598;-58
2022/03/22 11:44:32;;;;;;;11.18;7.43;;;17.70;45.10;;;;;;5026397;28;20032;-56
2022/03/22 11:47:03;;;;;;;12.70;7.50;;;17.60;45.40;;;;;;5017332;28;20380;-58
2022/03/22 11:49:29;;;;;;;12.27;7.32;;;17.60;46.50;;;;;;5024968;28;20026;-57
2022/03/22 11:51:56;;;;;;;11.50;7.25;;;17.70;45.40;;;;;;5026293;28;20026;-56
2022/03/22 11:54:27;;;;;;;10.13;7.15;;;17.70;44.00;;;;;;5017555;28;20038;-48
2022/03/22 11:56:56;;;;;;;14.13;7.18;;;17.60;44.80;;;;;;5001467;28;20045;-56
2022/03/22 11:59:22;;;;;;;11.68;6.97;;;17.70;42.90;;;;;;5003258;28;20027;-57
2022/03/22 12:02:05;;;;;;;11.00;6.72;;;17.60;42.90;;;;;;5005076;28;20044;-55
2022/03/22 12:04:54;;;;;;;13.73;7.47;;;17.60;41.40;;;;;;5003592;28;20088;-57
2022/03/22 12:07:30;;;;;;;9.55;5.57;;;17.60;41.90;;;;;;5003487;28;20037;-54
2022/03/22 12:10:08;;;;;;;13.35;6.10;;;17.50;44.20;;;;;;5003726;28;20028;-56
2022/03/22 12:12:36;;;;;;;11.55;7.53;;;17.60;43.40;;;;;;4998234;28;20022;-57
2022/03/22 12:15:04;;;;;;;13.52;8.05;;;17.60;43.10;;;;;;5001235;28;20026;-57
2022/03/22 12:17:30;;;;;;;15.82;8.15;;;17.60;43.50;;;;;;4987355;28;20553;-58
2022/03/22 12:20:00;;;;;;;11.38;8.43;;;17.50;43.40;;;;;;4987938;28;20030;-59
2022/03/22 12:22:27;;;;;;;13.60;9.02;;;17.40;42.10;;;;;;5004149;28;20026;-57
2022/03/22 12:24:52;;;;;;;13.38;9.48;;;17.40;44.10;;;;;;5003387;28;20033;-58
2022/03/22 12:27:18;;;;;;;15.18;9.50;;;17.40;45.70;;;;;;5006982;28;20034;-60
2022/03/22 12:29:47;;;;;;;13.40;9.55;;;17.40;45.20;;;;;;5008275;28;20026;-59
2022/03/22 12:32:15;;;;;;;14.98;9.90;;;17.40;44.70;;;;;;5009820;28;20061;-60
2022/03/22 12:34:41;;;;;;;13.90;8.77;;;17.40;44.70;;;;;;4999630;28;20029;-58
2022/03/22 12:37:08;;;;;;;14.85;9.52;;;17.40;44.00;;;;;;5007668;28;20108;-57
2022/03/22 12:39:39;;;;;;;13.20;8.40;;;17.30;44.00;;;;;;4989553;28;20483;-54
2022/03/22 12:42:06;;;;;;;17.17;9.95;;;17.30;43.60;;;;;;5001933;28;20057;-58
2022/03/22 12:44:32;;;;;;;14.63;10.00;;;17.20;45.00;;;;;;5000406;28;20103;-52
2022/03/22 12:46:59;;;;;;;14.15;10.18;;;17.20;45.30;;;;;;4983873;28;20045;-57
2022/03/22 12:49:25;;;;;;;13.50;8.82;;;17.20;43.30;;;;;;4978769;28;20035;-55
2022/03/22 12:51:50;;;;;;;15.38;9.18;;;17.10;44.10;;;;;;4982210;28;20444;-56
2022/03/22 12:54:17;;;;;;;11.98;8.82;;;17.10;43.80;;;;;;5000129;28;20026;-56
2022/03/22 12:56:47;;;;;;;16.02;10.00;;;17.10;44.80;;;;;;4992757;28;20407;-53
2022/03/22 12:59:23;;;;;;;16.38;9.93;;;17.10;45.60;;;;;;5002974;28;20054;-52
2022/03/22 13:01:57;;;;;;;15.90;9.75;;;17.10;43.90;;;;;;4993356;28;20034;-55
2022/03/22 13:04:26;;;;;;;;;;;17.00;44.60;;;;;;5001948;28;20049;-60
2022/03/22 13:07:01;;;;;;;14.50;9.63;;;17.00;44.60;;;;;;5005587;28;20306;-59